createdAt,value
2023-03-03T00:01:26.237Z,97755.39
2023-03-03T00:03:55.422Z,97757.85
2023-03-03T00:06:24.934Z,97757.13
2023-03-03T00:08:53.602Z,97758.82
2023-03-03T00:11:21.919Z,97758.11
2023-03-03T00:13:52.928Z,97749.41
2023-03-03T00:16:28.620Z,97752.19
2023-03-03T00:18:57.441Z,97751.57
2023-03-03T00:21:42.592Z,97749.98
2023-03-03T00:24:35.600Z,97752.05
2023-03-03T00:27:27.171Z,97744.90
2023-03-03T00:29:58.467Z,97741.61
2023-03-03T00:32:53.498Z,97740.92
2023-03-03T00:35:39.523Z,97740.77
2023-03-03T00:38:14.970Z,97737.40
2023-03-03T00:40:43.276Z,97733.02
2023-03-03T00:43:28.181Z,97733.46
2023-03-03T00:45:59.724Z,97733.79
2023-03-03T00:48:41.400Z,97733.76
2023-03-03T00:51:19.390Z,97735.25
2023-03-03T00:53:47.315Z,97732.66
2023-03-03T00:56:15.905Z,97731.20
2023-03-03T00:58:48.158Z,97728.19
2023-03-03T01:01:18.819Z,97730.52
2023-03-03T01:03:49.813Z,97727.41
2023-03-03T01:06:17.829Z,97724.36
2023-03-03T01:08:45.798Z,97727.52
2023-03-03T01:11:20.256Z,97723.98
2023-03-03T01:13:51.696Z,97722.84
2023-03-03T01:16:20.363Z,97718.69
2023-03-03T01:18:48.364Z,97718.55
2023-03-03T01:21:16.356Z,97718.90
2023-03-03T01:23:44.575Z,97715.73
2023-03-03T01:26:12.590Z,97715.03
2023-03-03T01:28:40.611Z,97712.59
2023-03-03T01:31:09.301Z,97714.73
2023-03-03T01:33:37.498Z,97714.27
2023-03-03T01:36:06.614Z,97712.43
2023-03-03T01:38:39.088Z,97712.25
2023-03-03T01:41:07.293Z,97712.04
2023-03-03T01:43:35.295Z,97707.80
2023-03-03T01:46:03.354Z,97704.56
2023-03-03T01:48:42.743Z,97704.63
2023-03-03T01:51:31.221Z,97703.09
2023-03-03T01:54:02.811Z,97706.43
2023-03-03T01:56:31.298Z,97705.71
2023-03-03T01:59:05.931Z,97704.57
2023-03-03T02:01:34.653Z,97706.11
2023-03-03T02:04:04.264Z,97706.49
2023-03-03T02:06:38.827Z,97702.59
2023-03-03T02:09:21.772Z,97701.70
2023-03-03T02:11:52.622Z,97701.11
2023-03-03T02:14:20.715Z,97697.55
2023-03-03T02:16:49.003Z,97699.73
2023-03-03T02:19:38.643Z,97699.11
2023-03-03T02:22:07.550Z,97699.58
2023-03-03T02:24:51.476Z,97698.20
2023-03-03T02:27:21.060Z,97691.96
2023-03-03T02:29:49.368Z,97693.14
2023-03-03T02:32:17.475Z,97691.41
2023-03-03T02:34:49.242Z,97695.65
2023-03-03T02:37:18.549Z,97694.66
2023-03-03T02:39:46.676Z,97692.19
2023-03-03T02:42:23.906Z,97689.95
2023-03-03T02:44:55.241Z,97686.77
2023-03-03T02:47:23.287Z,97687.53
2023-03-03T02:49:51.475Z,97687.14
2023-03-03T02:52:19.917Z,97686.57
2023-03-03T02:54:48.653Z,97687.71
2023-03-03T02:57:16.642Z,97681.68
2023-03-03T02:59:44.750Z,97679.84
2023-03-03T03:02:14.773Z,97678.48
2023-03-03T03:04:43.778Z,97680.36
2023-03-03T03:07:14.098Z,97679.58
2023-03-03T03:09:43.093Z,97679.53
2023-03-03T03:12:11.525Z,97677.64
2023-03-03T03:14:40.703Z,97676.57
2023-03-03T03:17:09.007Z,97673.45
2023-03-03T03:19:36.993Z,97669.05
2023-03-03T03:22:05.533Z,97670.63
2023-03-03T03:24:35.050Z,97672.85
2023-03-03T03:27:05.614Z,97669.38
2023-03-03T03:29:33.723Z,97669.17
2023-03-03T03:32:01.875Z,97669.71
2023-03-03T03:34:29.963Z,97666.48
2023-03-03T03:36:58.702Z,97668.27
2023-03-03T03:39:27.931Z,97666.80
2023-03-03T03:41:56.782Z,97665.29
2023-03-03T03:44:25.387Z,97660.33
2023-03-03T03:46:53.579Z,97661.91
2023-03-03T03:49:21.824Z,97657.84
2023-03-03T03:51:51.470Z,97658.68
2023-03-03T03:54:21.372Z,97657.38
2023-03-03T03:56:50.159Z,97657.00
2023-03-03T03:59:18.355Z,97660.51
2023-03-03T04:01:48.225Z,97652.10
2023-03-03T04:04:17.781Z,97654.85
2023-03-03T04:06:46.115Z,97653.21
2023-03-03T04:09:15.568Z,97649.19
2023-03-03T04:11:43.935Z,97647.80
2023-03-03T04:14:12.779Z,97648.65
2023-03-03T04:16:40.865Z,97645.41
2023-03-03T04:19:10.121Z,97647.85
2023-03-03T04:21:39.592Z,97646.57
2023-03-03T04:24:09.041Z,97645.03
2023-03-03T04:26:38.832Z,97646.41
2023-03-03T04:29:07.188Z,97643.96
2023-03-03T04:31:35.411Z,97646.33
2023-03-03T04:34:04.336Z,97650.20
2023-03-03T04:36:32.688Z,97650.34
2023-03-03T04:39:00.945Z,97647.39
2023-03-03T04:41:29.439Z,97647.72
2023-03-03T04:43:58.433Z,97650.86
2023-03-03T04:46:29.075Z,97648.90
2023-03-03T04:48:57.799Z,97651.70
2023-03-03T04:51:27.138Z,97652.57
2023-03-03T04:53:55.266Z,97652.71
2023-03-03T04:56:23.663Z,97648.52
2023-03-03T04:58:52.157Z,97648.06
2023-03-03T05:01:21.596Z,97643.39
2023-03-03T05:03:50.071Z,97643.48
2023-03-03T05:06:19.070Z,97643.48
2023-03-03T05:08:47.256Z,97641.91
2023-03-03T05:11:16.328Z,97641.45
2023-03-03T05:13:44.749Z,97641.87
2023-03-03T05:16:13.078Z,97641.06
2023-03-03T05:18:42.141Z,97640.36
2023-03-03T05:21:12.589Z,97640.18
2023-03-03T05:23:40.808Z,97641.35
2023-03-03T05:26:09.557Z,97640.27
2023-03-03T05:28:38.668Z,97640.19
2023-03-03T05:31:06.671Z,97641.46
2023-03-03T05:33:34.920Z,97640.66
2023-03-03T05:36:02.939Z,97643.95
2023-03-03T05:38:31.040Z,97644.40
2023-03-03T05:41:00.185Z,97642.29
2023-03-03T05:43:29.315Z,97642.77
2023-03-03T05:45:58.071Z,97643.20
2023-03-03T05:48:26.166Z,97640.00
2023-03-03T05:50:59.597Z,97641.52
2023-03-03T05:53:29.323Z,97642.36
2023-03-03T05:55:58.625Z,97642.75
2023-03-03T05:58:27.761Z,97640.94
2023-03-03T06:00:56.767Z,97642.22
2023-03-03T06:03:24.813Z,97640.49
2023-03-03T06:05:52.961Z,97642.92
2023-03-03T06:08:21.208Z,97640.25
2023-03-03T06:10:57.098Z,97642.02
2023-03-03T06:13:26.240Z,97643.14
2023-03-03T06:15:54.178Z,97641.16
2023-03-03T06:18:22.535Z,97642.63
2023-03-03T06:20:56.108Z,97644.84
2023-03-03T06:23:24.332Z,97648.52
2023-03-03T06:25:53.394Z,97645.92
2023-03-03T06:28:21.801Z,97642.39
2023-03-03T06:30:56.501Z,97647.02
2023-03-03T06:33:26.345Z,97640.90
2023-03-03T06:35:57.847Z,97643.49
2023-03-03T06:38:25.926Z,97647.95
2023-03-03T06:40:56.953Z,97648.02
2023-03-03T06:43:25.257Z,97648.14
2023-03-03T06:45:53.381Z,97647.76
2023-03-03T06:48:21.719Z,97649.60
2023-03-03T06:50:49.781Z,97644.45
2023-03-03T06:53:19.510Z,97642.39
2023-03-03T06:55:49.915Z,97647.23
2023-03-03T06:58:21.816Z,97645.73
2023-03-03T07:00:59.530Z,97647.76
2023-03-03T07:03:39.191Z,97646.70
2023-03-03T07:06:26.030Z,97649.22
2023-03-03T07:08:57.640Z,97649.52
2023-03-03T07:11:26.014Z,97649.60
2023-03-03T07:13:56.409Z,97649.55
2023-03-03T07:16:32.803Z,97647.32
2023-03-03T07:19:05.593Z,97649.44
2023-03-03T07:21:36.827Z,97651.88
2023-03-03T07:24:27.825Z,97649.01
2023-03-03T07:27:08.126Z,97647.45
2023-03-03T07:29:42.353Z,97647.91
2023-03-03T07:32:45.212Z,97651.55
2023-03-03T07:35:36.343Z,97648.72
2023-03-03T07:38:32.797Z,97648.11
2023-03-03T07:41:05.028Z,97648.09
2023-03-03T07:43:48.604Z,97647.52
2023-03-03T07:46:36.886Z,97643.10
2023-03-03T07:49:34.741Z,97644.20
2023-03-03T07:52:29.240Z,97640.28
2023-03-03T07:55:00.727Z,97640.38
2023-03-03T07:57:39.889Z,97638.30
2023-03-03T08:00:32.588Z,97638.64
2023-03-03T08:03:14.482Z,97639.91
2023-03-03T08:05:45.151Z,97634.02
2023-03-03T08:08:44.091Z,97632.35
2023-03-03T08:11:12.470Z,97631.23
2023-03-03T08:13:46.083Z,97630.09
2023-03-03T08:16:15.602Z,97630.90
2023-03-03T08:18:50.118Z,97629.41
2023-03-03T08:21:22.209Z,97628.98
2023-03-03T08:23:53.331Z,97632.98
2023-03-03T08:26:23.317Z,97632.95
2023-03-03T08:28:53.449Z,97632.33
2023-03-03T08:31:38.145Z,97632.70
2023-03-03T08:34:09.462Z,97632.21
2023-03-03T08:36:37.537Z,97627.76
2023-03-03T08:39:06.072Z,97625.17
2023-03-03T08:41:34.725Z,97624.04
2023-03-03T08:44:03.530Z,97625.05
2023-03-03T08:46:34.059Z,97625.16
2023-03-03T08:49:05.329Z,97625.55
2023-03-03T08:51:37.176Z,97623.96
2023-03-03T08:54:07.671Z,97620.58
2023-03-03T08:56:35.928Z,97616.40
2023-03-03T08:59:04.823Z,97616.48
2023-03-03T09:01:35.506Z,97614.81
2023-03-03T09:04:06.666Z,97613.12
2023-03-03T09:06:34.961Z,97618.66
2023-03-03T09:09:05.278Z,97616.34
2023-03-03T09:11:34.227Z,97615.00
2023-03-03T09:14:12.330Z,97616.35
2023-03-03T09:17:18.350Z,97611.31
2023-03-03T09:19:46.732Z,97606.46
2023-03-03T09:22:24.137Z,97603.77
2023-03-03T09:24:57.208Z,97603.59
2023-03-03T09:27:35.427Z,97610.83
2023-03-03T09:30:45.067Z,97600.05
2023-03-03T09:33:30.296Z,97600.87
2023-03-03T09:36:17.178Z,97594.34
2023-03-03T09:38:46.475Z,97590.95
2023-03-03T09:41:44.983Z,97589.40
2023-03-03T09:44:33.107Z,97594.42
2023-03-03T09:47:22.363Z,97596.55
2023-03-03T09:50:02.553Z,97594.48
2023-03-03T09:52:41.618Z,97592.17
2023-03-03T09:55:18.846Z,97584.80
2023-03-03T09:58:04.605Z,97586.58
2023-03-03T10:00:59.614Z,97588.67
2023-03-03T10:03:41.106Z,97583.34
2023-03-03T10:06:40.022Z,97589.21
2023-03-03T10:09:35.385Z,97584.31
2023-03-03T10:12:29.574Z,97582.72
2023-03-03T10:15:30.157Z,97578.38
2023-03-03T10:18:20.350Z,97576.98
2023-03-03T10:21:04.455Z,97578.20
2023-03-03T10:23:41.900Z,97573.60
2023-03-03T10:26:44.820Z,97570.46
2023-03-03T10:29:52.596Z,97570.77
2023-03-03T10:32:52.496Z,97563.34
2023-03-03T10:35:37.417Z,97563.48
2023-03-03T10:38:40.778Z,97555.73
2023-03-03T10:41:35.442Z,97551.73
2023-03-03T10:44:18.334Z,97551.52
2023-03-03T10:46:59.593Z,97544.36
2023-03-03T10:49:41.555Z,97547.68
2023-03-03T10:52:45.532Z,97543.41
2023-03-03T10:55:31.881Z,97548.21
2023-03-03T10:58:37.756Z,97546.81
2023-03-03T11:01:39.204Z,97540.34
2023-03-03T11:04:51.403Z,97534.71
2023-03-03T11:07:33.794Z,97534.44
2023-03-03T11:10:18.995Z,97527.55
2023-03-03T11:13:25.264Z,97523.02
2023-03-03T11:16:11.485Z,97521.33
2023-03-03T11:18:42.935Z,97516.37
2023-03-03T11:21:29.895Z,97518.11
2023-03-03T11:24:24.108Z,97519.90
2023-03-03T11:27:22.328Z,97520.62
2023-03-03T11:30:10.227Z,97515.65
2023-03-03T11:32:49.504Z,97511.15
2023-03-03T11:35:26.612Z,97505.23
2023-03-03T11:38:09.586Z,97510.80
2023-03-03T11:40:56.829Z,97501.77
2023-03-03T11:43:37.410Z,97507.61
2023-03-03T11:46:12.049Z,97506.55
2023-03-03T11:49:05.187Z,97502.70
2023-03-03T11:52:03.045Z,97497.25
2023-03-03T11:54:55.611Z,97505.33
2023-03-03T11:57:37.118Z,97501.81
2023-03-03T12:00:28.463Z,97500.96
2023-03-03T12:03:12.212Z,97498.27
2023-03-03T12:05:52.932Z,97496.44
2023-03-03T12:08:32.837Z,97494.65
2023-03-03T12:11:25.874Z,97496.80
2023-03-03T12:14:28.210Z,97496.96
2023-03-03T12:17:41.177Z,97487.11
2023-03-03T12:20:30.145Z,97481.85
2023-03-03T12:23:08.215Z,97482.34
2023-03-03T12:25:51.722Z,97478.98
2023-03-03T12:28:24.348Z,97478.09
2023-03-03T12:31:11.057Z,97476.39
2023-03-03T12:33:59.071Z,97476.91
2023-03-03T12:36:34.525Z,97487.96
2023-03-03T12:39:25.320Z,97487.81
2023-03-03T12:42:20.366Z,97484.48
2023-03-03T12:45:07.982Z,97483.19
2023-03-03T12:47:41.291Z,97480.58
2023-03-03T12:50:10.880Z,97479.88
2023-03-03T12:53:29.813Z,97475.48
2023-03-03T12:56:09.582Z,97470.88
2023-03-03T12:58:59.471Z,97470.86
2023-03-03T13:01:46.757Z,97468.21
2023-03-03T13:04:40.366Z,97465.39
2023-03-03T13:07:21.837Z,97468.03
2023-03-03T13:10:09.077Z,97465.04
2023-03-03T13:12:48.305Z,97463.67
2023-03-03T13:15:33.209Z,97470.43
2023-03-03T13:18:21.624Z,97475.34
2023-03-03T13:21:05.420Z,97473.09
2023-03-03T13:24:14.853Z,97469.63
2023-03-03T13:26:50.257Z,97465.29
2023-03-03T13:29:34.172Z,97468.08
2023-03-03T13:32:12.809Z,97468.67
2023-03-03T13:34:55.472Z,97462.61
2023-03-03T13:37:32.279Z,97467.67
2023-03-03T13:40:12.489Z,97456.05
2023-03-03T13:42:55.971Z,97455.84
2023-03-03T13:45:46.100Z,97453.70
2023-03-03T13:48:49.963Z,97452.63
2023-03-03T13:51:20.788Z,97455.56
2023-03-03T13:54:13.007Z,97452.59
2023-03-03T13:56:52.603Z,97453.16
2023-03-03T13:59:31.131Z,97453.39
2023-03-03T14:02:36.664Z,97447.73
2023-03-03T14:05:39.802Z,97442.13
2023-03-03T14:08:31.651Z,97443.05
2023-03-03T14:11:22.233Z,97445.27
2023-03-03T14:14:00.261Z,97446.14
2023-03-03T14:16:46.052Z,97448.26
2023-03-03T14:19:31.807Z,97451.29
2023-03-03T14:22:25.547Z,97451.77
2023-03-03T14:25:07.899Z,97444.63
2023-03-03T14:28:01.428Z,97448.61
2023-03-03T14:30:37.757Z,97456.74
2023-03-03T14:33:09.376Z,97452.56
2023-03-03T14:35:51.801Z,97445.11
2023-03-03T14:38:24.683Z,97448.80
2023-03-03T14:41:24.348Z,97444.70
2023-03-03T14:44:20.809Z,97441.30
2023-03-03T14:47:20.339Z,97450.29
2023-03-03T14:49:49.391Z,97449.09
2023-03-03T14:52:17.676Z,97443.37
2023-03-03T14:54:55.529Z,97443.40
2023-03-03T14:57:46.829Z,97444.95
2023-03-03T15:00:15.114Z,97447.39
2023-03-03T15:03:00.288Z,97443.67
2023-03-03T15:05:33.312Z,97435.04
2023-03-03T15:08:05.479Z,97441.13
2023-03-03T15:10:44.596Z,97437.22
2023-03-03T15:13:19.750Z,97444.93
2023-03-03T15:16:18.216Z,97446.41
2023-03-03T15:19:00.482Z,97444.58
2023-03-03T15:21:38.360Z,97451.25
2023-03-03T15:24:24.751Z,97444.09
2023-03-03T15:27:02.923Z,97446.81
2023-03-03T15:30:05.209Z,97447.07
2023-03-03T15:33:02.262Z,97448.39
2023-03-03T15:35:31.176Z,97445.07
2023-03-03T15:38:29.723Z,97444.67
2023-03-03T15:41:06.724Z,97446.94
2023-03-03T15:43:45.249Z,97451.25
2023-03-03T15:46:35.376Z,97449.81
2023-03-03T15:49:46.592Z,97451.05
2023-03-03T15:52:35.220Z,97454.91
2023-03-03T15:55:11.856Z,97453.88
2023-03-03T15:57:52.062Z,97454.07
2023-03-03T16:00:51.179Z,97459.60
2023-03-03T16:03:46.898Z,97458.11
2023-03-03T16:06:33.450Z,97458.17
2023-03-03T16:09:10.680Z,97462.40
2023-03-03T16:12:16.321Z,97463.29
2023-03-03T16:14:57.833Z,97472.30
2023-03-03T16:17:42.145Z,97476.72
2023-03-03T16:20:22.860Z,97480.86
2023-03-03T16:22:58.666Z,97481.71
2023-03-03T16:25:40.920Z,97487.59
2023-03-03T16:28:43.274Z,97494.01
2023-03-03T16:31:19.800Z,97496.98
2023-03-03T16:34:12.439Z,97501.66
2023-03-03T16:37:03.026Z,97502.91
2023-03-03T16:39:46.380Z,97508.23
2023-03-03T16:42:16.338Z,97511.50
2023-03-03T16:45:19.065Z,97512.41
2023-03-03T16:47:58.334Z,97512.48
2023-03-03T16:50:50.261Z,97517.42
2023-03-03T16:53:38.917Z,97522.57
2023-03-03T16:56:37.866Z,97526.89
2023-03-03T16:59:28.658Z,97524.36
2023-03-03T17:02:22.015Z,97528.27
2023-03-03T17:05:00.718Z,97534.48
2023-03-03T17:07:49.615Z,97535.15
2023-03-03T17:11:02.247Z,97537.85
2023-03-03T17:14:06.444Z,97536.30
2023-03-03T17:17:03.380Z,97540.08
2023-03-03T17:20:02.861Z,97537.36
2023-03-03T17:23:06.928Z,97543.48
2023-03-03T17:25:54.061Z,97548.27
2023-03-03T17:28:34.225Z,97549.94
2023-03-03T17:31:24.763Z,97548.70
2023-03-03T17:34:03.780Z,97552.08
2023-03-03T17:37:16.859Z,97556.64
2023-03-03T17:40:25.141Z,97557.44
2023-03-03T17:43:05.355Z,97560.41
2023-03-03T17:45:41.353Z,97565.19
2023-03-03T17:48:42.640Z,97560.92
2023-03-03T17:51:58.420Z,97561.34
2023-03-03T17:54:42.449Z,97564.28
2023-03-03T17:57:29.042Z,97560.95
2023-03-03T18:00:32.054Z,97564.26
2023-03-03T18:03:03.170Z,97565.04
2023-03-03T18:05:40.577Z,97568.45
2023-03-03T18:08:33.584Z,97570.38
2023-03-03T18:11:10.948Z,97576.45
2023-03-03T18:14:02.890Z,97576.92
2023-03-03T18:16:50.823Z,97578.00
2023-03-03T18:19:46.661Z,97579.04
2023-03-03T18:22:25.592Z,97580.56
2023-03-03T18:25:01.487Z,97583.89
2023-03-03T18:27:32.746Z,97591.02
2023-03-03T18:30:08.055Z,97591.65
2023-03-03T18:32:56.501Z,97598.75
2023-03-03T18:35:27.765Z,97601.26
2023-03-03T18:37:57.626Z,97601.41
2023-03-03T18:40:34.601Z,97604.56
2023-03-03T18:43:42.383Z,97605.75
2023-03-03T18:46:32.390Z,97607.52
2023-03-03T18:49:12.890Z,97612.20
2023-03-03T18:51:42.850Z,97607.61
2023-03-03T18:54:17.739Z,97609.88
2023-03-03T18:56:48.440Z,97608.96
2023-03-03T18:59:41.779Z,97607.05
2023-03-03T19:02:13.452Z,97608.73
2023-03-03T19:05:09.093Z,97610.83
2023-03-03T19:07:49.052Z,97613.05
2023-03-03T19:10:23.272Z,97613.30
2023-03-03T19:12:55.457Z,97616.13
2023-03-03T19:15:30.312Z,97618.70
2023-03-03T19:18:01.947Z,97619.36
2023-03-03T19:20:58.014Z,97622.77
2023-03-03T19:23:26.206Z,97623.55
2023-03-03T19:26:25.893Z,97625.25
2023-03-03T19:29:03.226Z,97625.46
2023-03-03T19:32:04.225Z,97626.67
2023-03-03T19:34:55.875Z,97624.96
2023-03-03T19:37:27.279Z,97626.82
2023-03-03T19:40:03.499Z,97628.11
2023-03-03T19:42:46.509Z,97628.67
2023-03-03T19:45:36.399Z,97631.10
2023-03-03T19:48:16.692Z,97626.38
2023-03-03T19:51:00.031Z,97628.13
2023-03-03T19:53:54.760Z,97631.80
2023-03-03T19:56:45.884Z,97632.48
2023-03-03T19:59:32.936Z,97635.16
2023-03-03T20:02:29.364Z,97634.84
2023-03-03T20:05:16.658Z,97629.27
2023-03-03T20:07:56.035Z,97631.52
2023-03-03T20:11:01.286Z,97637.16
2023-03-03T20:14:03.128Z,97637.80
2023-03-03T20:16:41.982Z,97639.30
2023-03-03T20:19:30.123Z,97638.75
2023-03-03T20:22:08.502Z,97644.05
2023-03-03T20:24:46.337Z,97646.80
2023-03-03T20:27:19.641Z,97654.21
2023-03-03T20:30:08.347Z,97653.89
2023-03-03T20:32:43.967Z,97657.50
2023-03-03T20:35:31.253Z,97660.29
2023-03-03T20:38:07.366Z,97660.16
2023-03-03T20:40:48.739Z,97661.10
2023-03-03T20:43:51.573Z,97664.61
2023-03-03T20:46:44.569Z,97663.05
2023-03-03T20:49:34.637Z,97667.13
2023-03-03T20:52:21.305Z,97666.75
2023-03-03T20:55:10.745Z,97665.23
2023-03-03T20:58:11.024Z,97666.95
2023-03-03T21:00:53.583Z,97667.59
2023-03-03T21:03:42.140Z,97666.81
2023-03-03T21:06:19.699Z,97670.42
2023-03-03T21:08:49.935Z,97673.83
2023-03-03T21:11:21.206Z,97672.95
2023-03-03T21:13:53.649Z,97673.65
2023-03-03T21:16:21.644Z,97673.30
2023-03-03T21:19:03.280Z,97673.36
2023-03-03T21:21:34.470Z,97677.68
2023-03-03T21:24:02.851Z,97674.73
2023-03-03T21:27:23.554Z,97679.05
2023-03-03T21:30:20.744Z,97682.30
2023-03-03T21:32:51.109Z,97683.30
2023-03-03T21:35:22.097Z,97690.27
2023-03-03T21:37:56.117Z,97685.02
2023-03-03T21:40:28.636Z,97684.08
2023-03-03T21:43:01.150Z,97688.84
2023-03-03T21:45:30.513Z,97687.62
2023-03-03T21:48:01.390Z,97690.92
2023-03-03T21:50:33.034Z,97687.83
2023-03-03T21:53:01.373Z,97691.41
2023-03-03T21:55:29.493Z,97690.66
2023-03-03T21:57:57.674Z,97693.64
2023-03-03T22:00:25.925Z,97691.64
2023-03-03T22:02:58.091Z,97692.86
2023-03-03T22:05:26.074Z,97694.25
2023-03-03T22:07:54.230Z,97695.80
2023-03-03T22:10:23.665Z,97697.88
2023-03-03T22:12:51.709Z,97698.34
2023-03-03T22:15:19.852Z,97696.53
2023-03-03T22:17:47.912Z,97701.56
2023-03-03T22:20:18.213Z,97702.20
2023-03-03T22:22:47.518Z,97701.20
2023-03-03T22:25:15.519Z,97704.63
2023-03-03T22:27:43.974Z,97702.00
2023-03-03T22:30:12.717Z,97698.32
2023-03-03T22:32:40.764Z,97700.48
2023-03-03T22:35:09.601Z,97693.38
2023-03-03T22:37:37.663Z,97696.80
2023-03-03T22:40:06.212Z,97696.00
2023-03-03T22:42:34.200Z,97696.64
2023-03-03T22:45:02.356Z,97690.16
2023-03-03T22:47:30.395Z,97692.02
2023-03-03T22:49:59.465Z,97694.48
2023-03-03T22:52:27.956Z,97690.64
2023-03-03T22:54:58.042Z,97691.59
2023-03-03T22:57:30.128Z,97693.96
2023-03-03T23:00:00.040Z,97695.59
2023-03-03T23:02:29.401Z,97694.70
2023-03-03T23:05:01.822Z,97701.05
2023-03-03T23:07:30.028Z,97704.17
2023-03-03T23:09:57.965Z,97704.71
2023-03-03T23:12:26.523Z,97705.16
2023-03-03T23:14:54.604Z,97702.74
2023-03-03T23:17:24.451Z,97705.74
2023-03-03T23:19:52.980Z,97705.73
2023-03-03T23:22:21.089Z,97705.15
2023-03-03T23:24:49.652Z,97704.22
2023-03-03T23:27:17.801Z,97704.08
2023-03-03T23:29:45.939Z,97699.00
2023-03-03T23:32:14.195Z,97697.88
2023-03-03T23:34:42.382Z,97699.27
2023-03-03T23:37:11.330Z,97697.48
2023-03-03T23:39:40.813Z,97696.46
2023-03-03T23:42:08.824Z,97695.45
2023-03-03T23:44:40.354Z,97694.77
2023-03-03T23:47:08.929Z,97698.11
2023-03-03T23:49:38.835Z,97697.75
2023-03-03T23:52:09.148Z,97695.40
2023-03-03T23:54:37.535Z,97700.12
2023-03-03T23:57:08.093Z,97703.61
2023-03-03T23:59:38.808Z,97702.33
